Time;durP1;ratioP1;P1;durP2;ratioP2;P2;SDS_P1;SDS_P2;PMS_P1;PMS_P2;Temp;Humidity;BMP_temperature;BMP_pressure;BME280_temperature;BME280_humidity;BME280_pressure;Samples;Min_cycle;Max_cycle;Signal;HPM_P1;HPM_P2
2023/08/23 00:02:24;;;;;;;14.02;6.05;;;18.70;99.90;;;;;;5025530;28;20029;-74
2023/08/23 00:04:50;;;;;;;17.70;6.78;;;18.70;99.90;;;;;;5026722;28;20757;-75
2023/08/23 00:07:16;;;;;;;17.50;7.80;;;18.70;99.90;;;;;;5025410;28;20030;-75
2023/08/23 00:09:42;;;;;;;13.15;6.82;;;18.60;99.90;;;;;;5013517;28;20049;-75
2023/08/23 00:12:08;;;;;;;25.65;7.05;;;18.60;99.90;;;;;;5006210;28;20046;-74
2023/08/23 00:14:34;;;;;;;15.80;7.22;;;18.60;99.90;;;;;;5006521;28;20022;-74
2023/08/23 00:16:59;;;;;;;17.63;7.40;;;18.70;99.90;;;;;;5007223;28;20030;-73
2023/08/23 00:19:25;;;;;;;14.13;7.55;;;18.60;99.90;;;;;;5006610;28;20030;-75
2023/08/23 00:21:51;;;;;;;16.48;7.30;;;18.60;99.90;;;;;;5020802;28;20101;-75
2023/08/23 00:24:19;;;;;;;16.95;8.52;;;18.60;99.90;;;;;;5026010;28;20036;-76
2023/08/23 00:26:44;;;;;;;20.80;8.50;;;18.60;99.90;;;;;;5026292;28;20045;-74
2023/08/23 00:29:10;;;;;;;16.63;8.57;;;18.60;99.90;;;;;;5025114;28;20050;-74
2023/08/23 00:31:36;;;;;;;14.38;7.80;;;18.60;99.90;;;;;;5026243;28;20030;-76
2023/08/23 00:34:02;;;;;;;16.50;7.85;;;18.60;99.90;;;;;;5024385;28;20079;-73
2023/08/23 00:36:28;;;;;;;13.95;7.90;;;18.60;99.90;;;;;;5025414;28;20022;-73
2023/08/23 00:38:55;;;;;;;15.80;7.43;;;18.50;99.90;;;;;;5026155;28;20082;-74
2023/08/23 00:41:21;;;;;;;16.20;6.82;;;18.50;99.90;;;;;;5025118;28;20097;-73
2023/08/23 00:43:47;;;;;;;18.10;8.05;;;18.50;99.90;;;;;;5024497;28;20033;-75
2023/08/23 00:46:15;;;;;;;14.50;7.38;;;18.40;99.90;;;;;;5025901;28;20026;-75
2023/08/23 00:48:41;;;;;;;12.88;6.78;;;18.40;99.90;;;;;;5025638;28;20045;-74
2023/08/23 00:51:08;;;;;;;13.90;8.00;;;18.40;99.90;;;;;;5024754;28;20045;-74
2023/08/23 00:53:34;;;;;;;18.77;8.00;;;18.30;99.90;;;;;;5025035;28;20053;-74
2023/08/23 00:56:00;;;;;;;16.98;7.93;;;18.30;99.90;;;;;;5024398;28;20030;-74
2023/08/23 00:58:26;;;;;;;13.43;8.55;;;18.20;99.90;;;;;;5024733;28;20025;-75
2023/08/23 01:00:54;;;;;;;18.25;8.65;;;18.20;99.90;;;;;;5024665;28;20060;-73
2023/08/23 01:03:20;;;;;;;20.05;8.80;;;18.10;99.90;;;;;;5025249;28;20034;-73
2023/08/23 01:06:32;;;;;;;23.40;9.23;;;18.10;99.90;;;;;;5024592;28;20489;-73
2023/08/23 01:09:24;;;;;;;18.27;8.95;;;18.10;99.90;;;;;;5022568;28;20061;-71
2023/08/23 01:12:03;;;;;;;14.13;8.63;;;18.10;99.90;;;;;;5021304;28;20085;-73
2023/08/23 01:14:50;;;;;;;18.73;8.45;;;18.10;99.90;;;;;;5005472;28;20484;-73
2023/08/23 01:17:18;;;;;;;14.85;8.73;;;18.10;99.90;;;;;;5005474;28;20030;-73
2023/08/23 01:19:46;;;;;;;19.17;8.85;;;18.00;99.90;;;;;;5005963;28;20022;-73
2023/08/23 01:22:18;;;;;;;18.33;8.43;;;18.00;99.90;;;;;;5005992;28;20094;-72
2023/08/23 01:24:44;;;;;;;17.95;8.65;;;18.00;99.90;;;;;;5006084;28;20396;-72
2023/08/23 01:27:10;;;;;;;18.45;9.02;;;17.90;99.90;;;;;;5005100;28;20037;-73
2023/08/23 01:29:35;;;;;;;13.93;8.45;;;17.90;99.90;;;;;;5005987;28;20090;-72
2023/08/23 01:32:23;;;;;;;21.63;8.10;;;17.90;99.90;;;;;;5005769;28;20023;-72
2023/08/23 01:34:54;;;;;;;19.48;8.90;;;17.90;99.90;;;;;;5005495;28;20050;-72
2023/08/23 01:37:23;;;;;;;11.52;8.05;;;17.80;99.90;;;;;;5005747;28;20039;-73
2023/08/23 01:39:52;;;;;;;15.85;8.40;;;17.80;99.90;;;;;;5008527;28;20042;-73
2023/08/23 01:42:21;;;;;;;16.85;8.75;;;17.80;99.90;;;;;;5023707;28;20046;-72
2023/08/23 01:44:48;;;;;;;18.38;8.25;;;17.80;99.90;;;;;;5023388;28;20030;-75
2023/08/23 01:47:14;;;;;;;19.33;9.13;;;17.80;99.90;;;;;;5024535;28;20030;-73
2023/08/23 01:49:40;;;;;;;16.90;9.35;;;17.80;99.90;;;;;;5025317;28;20030;-73
2023/08/23 01:52:06;;;;;;;18.42;8.82;;;17.70;99.90;;;;;;5023241;28;20025;-73
2023/08/23 01:54:31;;;;;;;16.15;8.80;;;17.70;99.90;;;;;;5025258;28;20040;-74
2023/08/23 01:56:57;;;;;;;16.98;9.00;;;17.70;99.90;;;;;;5025071;28;20029;-73
2023/08/23 01:59:22;;;;;;;15.95;8.93;;;17.70;99.90;;;;;;5023438;28;20482;-74
2023/08/23 02:01:48;;;;;;;16.90;9.15;;;17.70;99.90;;;;;;5023570;28;20030;-74
2023/08/23 02:04:16;;;;;;;17.17;10.60;;;17.60;99.90;;;;;;5024641;28;20030;-74
2023/08/23 02:06:43;;;;;;;23.15;10.40;;;17.60;99.90;;;;;;5023393;28;20029;-73
2023/08/23 02:09:09;;;;;;;23.52;10.60;;;17.60;99.90;;;;;;5023520;28;20025;-73
2023/08/23 02:11:36;;;;;;;32.13;12.98;;;17.60;99.90;;;;;;5024136;28;20033;-72
2023/08/23 02:14:02;;;;;;;28.27;12.65;;;17.60;99.90;;;;;;5023687;28;20038;-74
2023/08/23 02:16:28;;;;;;;24.17;12.77;;;17.50;99.90;;;;;;5024240;28;20030;-73
2023/08/23 02:18:54;;;;;;;31.88;14.40;;;17.50;99.90;;;;;;5024337;28;20034;-73
2023/08/23 02:21:20;;;;;;;28.23;13.23;;;17.50;99.90;;;;;;5023485;28;20530;-74
2023/08/23 02:23:45;;;;;;;30.00;14.85;;;17.50;99.90;;;;;;5022637;28;20033;-72
2023/08/23 02:26:11;;;;;;;25.98;13.68;;;17.50;99.90;;;;;;5024316;28;20061;-74
2023/08/23 02:28:36;;;;;;;27.52;13.38;;;17.50;99.90;;;;;;5024610;28;20025;-73
2023/08/23 02:31:03;;;;;;;26.23;13.35;;;17.40;99.90;;;;;;5023376;28;20060;-74
2023/08/23 02:33:29;;;;;;;27.63;13.45;;;17.40;99.90;;;;;;5022708;28;20046;-73
2023/08/23 02:35:54;;;;;;;28.48;13.55;;;17.30;99.90;;;;;;5024041;28;20506;-71
2023/08/23 02:38:20;;;;;;;24.55;14.10;;;17.30;99.90;;;;;;5023660;28;20034;-74
2023/08/23 02:40:45;;;;;;;25.00;13.30;;;17.30;99.90;;;;;;5024080;28;20125;-72
2023/08/23 02:43:11;;;;;;;28.85;14.15;;;17.20;99.90;;;;;;5024193;28;20026;-72
2023/08/23 02:45:41;;;;;;;26.80;13.88;;;17.20;99.90;;;;;;5022971;28;20034;-71
2023/08/23 02:48:10;;;;;;;25.15;13.43;;;17.10;99.90;;;;;;5022305;28;20037;-73
2023/08/23 02:50:37;;;;;;;27.38;14.75;;;17.10;99.90;;;;;;5024751;28;20030;-73
2023/08/23 02:53:02;;;;;;;25.85;14.50;;;17.00;99.90;;;;;;5022997;28;20057;-72
2023/08/23 02:55:28;;;;;;;23.65;13.55;;;17.00;99.90;;;;;;5022761;28;20025;-73
2023/08/23 02:57:54;;;;;;;27.05;14.45;;;17.00;99.90;;;;;;5025024;28;20076;-73
2023/08/23 03:00:19;;;;;;;27.02;13.10;;;17.00;99.90;;;;;;5026590;28;20096;-72
2023/08/23 03:02:45;;;;;;;24.50;13.85;;;17.00;99.90;;;;;;5027084;28;20033;-73
2023/08/23 03:05:11;;;;;;;22.38;13.25;;;17.00;99.90;;;;;;5028159;28;20052;-72
2023/08/23 03:07:36;;;;;;;24.55;13.23;;;17.00;99.90;;;;;;5026465;28;20390;-73
2023/08/23 03:10:02;;;;;;;20.88;13.98;;;17.00;99.90;;;;;;5026910;28;20129;-72
2023/08/23 03:12:28;;;;;;;26.30;14.52;;;16.90;99.90;;;;;;5028302;28;20041;-74
2023/08/23 03:14:53;;;;;;;25.65;14.25;;;17.00;99.90;;;;;;5027289;28;20061;-73
2023/08/23 03:17:19;;;;;;;25.25;14.55;;;17.00;99.90;;;;;;5026908;28;20033;-74
2023/08/23 03:19:44;;;;;;;26.85;14.45;;;17.00;99.90;;;;;;5027662;28;20040;-75
2023/08/23 03:22:10;;;;;;;21.30;13.60;;;17.00;99.90;;;;;;5027888;28;20081;-74
2023/08/23 03:24:35;;;;;;;23.58;13.57;;;17.00;99.90;;;;;;5027815;28;20030;-74
2023/08/23 03:27:01;;;;;;;23.67;15.02;;;17.00;99.90;;;;;;5027617;28;20098;-75
2023/08/23 03:29:27;;;;;;;23.05;14.82;;;17.00;99.90;;;;;;5027499;28;20030;-75
2023/08/23 03:31:52;;;;;;;25.83;14.45;;;17.00;99.90;;;;;;5027995;28;20085;-74
2023/08/23 03:34:18;;;;;;;23.23;14.15;;;17.10;99.90;;;;;;5027160;28;20061;-73
2023/08/23 03:36:43;;;;;;;22.33;13.95;;;17.10;99.90;;;;;;5027475;28;20037;-73
2023/08/23 03:39:09;;;;;;;23.50;14.15;;;17.10;99.90;;;;;;5027401;28;20394;-74
2023/08/23 03:41:34;;;;;;;24.27;13.63;;;17.10;99.90;;;;;;5025373;28;20101;-73
2023/08/23 03:44:00;;;;;;;23.27;14.55;;;17.10;99.90;;;;;;5026059;28;20044;-74
2023/08/23 03:46:26;;;;;;;22.23;13.60;;;17.10;99.90;;;;;;5027500;28;20030;-74
2023/08/23 03:48:52;;;;;;;21.13;13.65;;;17.10;99.90;;;;;;5027005;28;20107;-73
2023/08/23 03:51:18;;;;;;;22.67;13.88;;;17.10;99.90;;;;;;5027651;28;20433;-74
2023/08/23 03:53:43;;;;;;;24.58;13.90;;;17.10;99.90;;;;;;5025790;28;20089;-72
2023/08/23 03:56:09;;;;;;;23.25;14.15;;;17.10;99.90;;;;;;5026986;28;20034;-75
2023/08/23 03:58:35;;;;;;;26.98;15.60;;;17.10;99.90;;;;;;5026044;28;20034;-73
2023/08/23 04:01:01;;;;;;;29.35;16.60;;;17.10;99.90;;;;;;5025474;28;20025;-75
2023/08/23 04:03:27;;;;;;;28.15;15.00;;;17.10;99.90;;;;;;5025775;28;20049;-74
2023/08/23 04:05:52;;;;;;;23.98;15.20;;;17.00;99.90;;;;;;5027079;28;20079;-74
2023/08/23 04:08:18;;;;;;;25.50;14.45;;;17.00;99.90;;;;;;5026918;28;20064;-75
2023/08/23 04:10:48;;;;;;;24.10;15.48;;;17.00;99.90;;;;;;5022081;28;20036;-74
2023/08/23 04:13:14;;;;;;;25.55;15.95;;;16.90;99.90;;;;;;5017970;28;20471;-75
2023/08/23 04:15:44;;;;;;;25.95;15.63;;;16.90;99.90;;;;;;5020595;28;20061;-74
2023/08/23 04:18:09;;;;;;;25.05;15.20;;;16.90;99.90;;;;;;5015654;28;20035;-73
2023/08/23 04:20:37;;;;;;;26.65;15.70;;;16.90;99.90;;;;;;5015062;28;20045;-75
2023/08/23 04:23:03;;;;;;;29.33;16.92;;;16.90;99.90;;;;;;5019713;28;20038;-74
2023/08/23 04:25:29;;;;;;;30.05;16.95;;;16.90;99.90;;;;;;5024013;28;20030;-73
2023/08/23 04:27:54;;;;;;;41.38;18.58;;;16.90;99.90;;;;;;5023538;28;20034;-75
2023/08/23 04:30:20;;;;;;;84.13;19.25;;;16.90;99.90;;;;;;5021068;28;20495;-74
2023/08/23 04:32:45;;;;;;;36.20;19.17;;;16.90;99.90;;;;;;5024535;28;20069;-74
2023/08/23 04:35:11;;;;;;;82.05;18.95;;;16.90;99.90;;;;;;5026531;28;20054;-75
2023/08/23 04:37:37;;;;;;;63.60;18.98;;;16.90;99.90;;;;;;5026661;28;21052;-74
2023/08/23 04:40:04;;;;;;;56.15;19.67;;;16.80;99.90;;;;;;5026163;28;20045;-73
2023/08/23 04:42:31;;;;;;;37.90;19.63;;;16.80;99.90;;;;;;5024801;28;20037;-74
2023/08/23 04:44:59;;;;;;;45.58;19.17;;;16.80;99.90;;;;;;5026030;28;20022;-74
2023/08/23 04:47:25;;;;;;;45.67;19.42;;;16.80;99.90;;;;;;5026381;28;20033;-75
2023/08/23 04:49:50;;;;;;;55.40;19.85;;;16.80;99.90;;;;;;5024939;28;20022;-73
2023/08/23 04:52:16;;;;;;;39.63;19.40;;;16.80;99.90;;;;;;5025661;28;20076;-74
2023/08/23 04:54:41;;;;;;;40.50;19.02;;;16.80;99.90;;;;;;5026106;28;20044;-74
2023/08/23 04:57:07;;;;;;;57.53;18.48;;;16.80;99.90;;;;;;5026503;28;20394;-74
2023/08/23 04:59:33;;;;;;;98.20;20.42;;;16.80;99.90;;;;;;5025489;28;20073;-75
2023/08/23 05:01:58;;;;;;;134.80;19.92;;;16.80;99.90;;;;;;5025045;28;20083;-75
2023/08/23 05:04:29;;;;;;;161.65;20.17;;;16.80;99.90;;;;;;5024522;28;20030;-74
2023/08/23 05:06:54;;;;;;;187.75;20.85;;;16.70;99.90;;;;;;5017392;28;20032;-75
2023/08/23 05:09:20;;;;;;;140.70;21.10;;;16.70;99.90;;;;;;5026023;28;20046;-72
2023/08/23 05:11:46;;;;;;;125.47;20.48;;;16.70;99.90;;;;;;5026011;28;20083;-75
2023/08/23 05:14:11;;;;;;;136.13;21.25;;;16.70;99.90;;;;;;5023959;28;20034;-73
2023/08/23 05:16:37;;;;;;;154.38;21.05;;;16.70;99.90;;;;;;5025740;28;20090;-75
2023/08/23 05:19:03;;;;;;;133.35;22.38;;;16.70;99.90;;;;;;5025527;28;20038;-74
2023/08/23 05:21:28;;;;;;;61.42;22.67;;;16.80;99.90;;;;;;5024221;28;20026;-75
2023/08/23 05:23:54;;;;;;;73.60;21.45;;;16.80;99.90;;;;;;5026030;28;20626;-74
2023/08/23 05:26:19;;;;;;;147.73;22.70;;;16.80;99.90;;;;;;5023628;28;20026;-76
2023/08/23 05:28:45;;;;;;;55.97;22.75;;;16.90;99.90;;;;;;5025747;28;20050;-74
2023/08/23 05:31:11;;;;;;;78.50;23.00;;;16.90;99.90;;;;;;5024679;28;20029;-75
2023/08/23 05:33:39;;;;;;;105.00;22.98;;;16.90;99.90;;;;;;5023838;28;20830;-75
2023/08/23 05:36:04;;;;;;;88.97;22.98;;;16.90;99.90;;;;;;5023786;28;20105;-74
2023/08/23 05:38:30;;;;;;;38.65;21.38;;;16.90;99.90;;;;;;5025039;28;20070;-73
2023/08/23 05:40:56;;;;;;;68.93;22.98;;;17.00;99.90;;;;;;5023802;28;20030;-73
2023/08/23 05:43:22;;;;;;;52.05;23.63;;;17.00;99.90;;;;;;5024987;28;20076;-73
2023/08/23 05:45:50;;;;;;;46.60;23.88;;;17.00;99.90;;;;;;5022991;28;20077;-73
2023/08/23 05:48:16;;;;;;;49.10;22.58;;;17.10;99.90;;;;;;5021069;28;20026;-74
2023/08/23 05:50:42;;;;;;;38.95;21.88;;;17.10;99.90;;;;;;5022863;28;20098;-73
2023/08/23 05:53:14;;;;;;;40.47;21.98;;;17.20;99.90;;;;;;5023010;28;20034;-73
2023/08/23 05:55:40;;;;;;;37.55;20.08;;;17.20;99.90;;;;;;5021114;28;20028;-72
2023/08/23 05:58:05;;;;;;;35.92;20.95;;;17.30;99.90;;;;;;5021965;28;20022;-74
2023/08/23 06:00:31;;;;;;;32.40;19.13;;;17.30;99.90;;;;;;5021229;28;20064;-73
2023/08/23 06:02:56;;;;;;;40.03;21.40;;;17.30;99.90;;;;;;5022264;28;20029;-72
2023/08/23 06:05:22;;;;;;;33.97;19.50;;;17.30;99.90;;;;;;5022319;28;20038;-73
2023/08/23 06:07:47;;;;;;;36.30;19.95;;;17.40;99.90;;;;;;5021032;28;20033;-75
2023/08/23 06:10:13;;;;;;;34.85;19.60;;;17.40;99.90;;;;;;5022031;28;20026;-72
2023/08/23 06:12:38;;;;;;;34.10;20.25;;;17.40;99.90;;;;;;5022640;28;20425;-72
2023/08/23 06:15:05;;;;;;;37.40;20.65;;;17.40;99.90;;;;;;5021998;28;20018;-72
2023/08/23 06:17:30;;;;;;;36.65;21.05;;;17.40;99.90;;;;;;5021388;28;20025;-72
2023/08/23 06:19:56;;;;;;;31.48;19.35;;;17.40;99.90;;;;;;5020233;28;20049;-73
2023/08/23 06:22:22;;;;;;;35.30;20.58;;;17.40;99.90;;;;;;5021416;28;20033;-76
2023/08/23 06:24:48;;;;;;;30.98;19.63;;;17.50;99.90;;;;;;5021279;28;20026;-74
2023/08/23 06:27:13;;;;;;;32.40;18.67;;;17.50;99.90;;;;;;5022147;28;20056;-71
2023/08/23 06:29:40;;;;;;;32.65;19.42;;;17.60;99.90;;;;;;5021584;28;20061;-71
2023/08/23 06:32:09;;;;;;;30.00;18.25;;;17.60;99.90;;;;;;5022094;28;20045;-73
2023/08/23 06:34:35;;;;;;;29.52;17.02;;;17.60;99.90;;;;;;5020991;28;20046;-73
2023/08/23 06:37:01;;;;;;;28.95;17.55;;;17.70;99.90;;;;;;5021650;28;20108;-74
2023/08/23 06:39:26;;;;;;;27.40;17.60;;;17.60;99.90;;;;;;5020238;28;20521;-73
2023/08/23 06:41:52;;;;;;;31.35;16.88;;;17.60;99.90;;;;;;5021594;28;20044;-72
2023/08/23 06:44:17;;;;;;;29.25;17.38;;;17.70;99.90;;;;;;5021121;28;20022;-73
2023/08/23 06:46:43;;;;;;;28.15;17.17;;;17.70;99.90;;;;;;5022003;28;20450;-73
2023/08/23 06:49:08;;;;;;;31.67;17.90;;;17.70;99.90;;;;;;5020343;28;20037;-74
2023/08/23 06:51:34;;;;;;;27.83;16.92;;;17.70;99.90;;;;;;5021291;28;20025;-73
2023/08/23 06:54:00;;;;;;;32.97;18.20;;;17.70;99.90;;;;;;5016926;28;20534;-73
2023/08/23 06:56:26;;;;;;;31.55;18.30;;;17.80;99.90;;;;;;5021137;28;20558;-73
2023/08/23 06:58:51;;;;;;;30.33;17.63;;;17.80;99.90;;;;;;5019627;28;20431;-74
2023/08/23 07:01:17;;;;;;;29.05;16.08;;;17.90;99.90;;;;;;5020551;28;20014;-72
2023/08/23 07:03:44;;;;;;;30.33;17.13;;;18.00;99.90;;;;;;5021734;28;20018;-73
2023/08/23 07:06:14;;;;;;;28.63;16.70;;;18.10;99.90;;;;;;5019339;28;20026;-74
2023/08/23 07:08:41;;;;;;;27.08;15.63;;;18.10;99.90;;;;;;5019570;28;20108;-74
2023/08/23 07:11:07;;;;;;;29.73;16.67;;;18.20;99.90;;;;;;5020130;28;20036;-74
2023/08/23 07:13:34;;;;;;;24.48;16.20;;;18.30;99.90;;;;;;5019537;28;20158;-74
2023/08/23 07:16:00;;;;;;;27.85;16.10;;;18.30;99.90;;;;;;5021224;28;20025;-73
2023/08/23 07:18:25;;;;;;;28.42;14.45;;;18.40;99.90;;;;;;5018885;28;20022;-73
2023/08/23 07:20:51;;;;;;;27.90;14.63;;;18.50;99.90;;;;;;5019684;28;20434;-73
2023/08/23 07:23:16;;;;;;;24.48;14.18;;;18.50;99.90;;;;;;5020518;28;20026;-74
2023/08/23 07:25:44;;;;;;;25.92;15.18;;;18.60;99.90;;;;;;5019410;28;20029;-74
2023/08/23 07:28:09;;;;;;;28.08;14.70;;;18.70;99.90;;;;;;5021345;28;20086;-74
2023/08/23 07:30:35;;;;;;;25.10;13.23;;;18.70;99.90;;;;;;5019687;28;20026;-76
2023/08/23 07:33:00;;;;;;;23.27;13.82;;;18.80;99.90;;;;;;5020554;28;20044;-77
2023/08/23 07:35:26;;;;;;;22.40;12.38;;;18.90;99.90;;;;;;5019907;28;20132;-74
2023/08/23 07:37:51;;;;;;;18.05;11.35;;;19.00;99.90;;;;;;5019671;28;20050;-73
2023/08/23 07:40:17;;;;;;;18.25;10.50;;;19.10;99.90;;;;;;5018936;28;20068;-75
2023/08/23 07:42:43;;;;;;;19.85;10.82;;;19.10;99.90;;;;;;5019508;28;20105;-75
2023/08/23 07:45:09;;;;;;;16.02;9.40;;;19.30;99.90;;;;;;5020815;28;20064;-80
2023/08/23 07:47:35;;;;;;;15.13;9.23;;;19.40;99.90;;;;;;5021568;28;20046;-77
2023/08/23 07:50:02;;;;;;;15.23;7.95;;;19.50;99.90;;;;;;5021674;28;20030;-74
2023/08/23 07:52:28;;;;;;;14.50;8.85;;;19.60;99.90;;;;;;5022341;28;20045;-75
2023/08/23 07:54:53;;;;;;;14.90;9.25;;;19.70;99.90;;;;;;5022012;28;20084;-72
2023/08/23 07:57:19;;;;;;;17.75;9.82;;;19.70;99.90;;;;;;5023034;28;20030;-75
2023/08/23 07:59:45;;;;;;;17.10;11.30;;;19.80;99.90;;;;;;5020788;28;20057;-74
2023/08/23 08:02:11;;;;;;;16.40;8.82;;;19.80;99.90;;;;;;5022868;28;20048;-73
2023/08/23 08:04:37;;;;;;;15.93;8.15;;;19.90;99.90;;;;;;5022312;28;20026;-77
2023/08/23 08:07:03;;;;;;;13.00;7.90;;;19.90;99.90;;;;;;5023308;28;20041;-75
2023/08/23 08:09:29;;;;;;;15.25;7.57;;;19.90;99.90;;;;;;5023134;28;20024;-74
2023/08/23 08:11:54;;;;;;;12.13;7.78;;;20.00;99.90;;;;;;5022767;28;20080;-78
2023/08/23 08:14:20;;;;;;;12.05;6.72;;;20.00;99.90;;;;;;5021851;28;20382;-74
2023/08/23 08:16:45;;;;;;;15.80;9.55;;;19.90;99.90;;;;;;5022804;28;20041;-74
2023/08/23 08:19:11;;;;;;;14.68;8.23;;;20.00;99.90;;;;;;5023298;28;20105;-77
2023/08/23 08:21:36;;;;;;;13.30;9.00;;;20.00;99.90;;;;;;5022824;28;20045;-76
2023/08/23 08:24:02;;;;;;;14.73;8.73;;;20.10;99.90;;;;;;5023985;28;20451;-74
2023/08/23 08:26:28;;;;;;;13.15;7.88;;;20.20;99.90;;;;;;5020972;28;20093;-75
2023/08/23 08:28:54;;;;;;;14.05;8.57;;;20.30;99.90;;;;;;5020548;28;20025;-76
2023/08/23 08:31:20;;;;;;;11.32;7.90;;;20.40;99.90;;;;;;5022332;28;20034;-78
2023/08/23 08:33:46;;;;;;;12.07;7.28;;;20.40;99.90;;;;;;5022458;28;20042;-76
2023/08/23 08:36:13;;;;;;;12.55;6.75;;;20.40;99.90;;;;;;5022514;28;20110;-75
2023/08/23 08:38:38;;;;;;;11.85;6.70;;;20.50;99.90;;;;;;5022744;28;20026;-75
2023/08/23 08:41:05;;;;;;;8.70;6.82;;;20.50;99.90;;;;;;5023363;28;20034;-76
2023/08/23 08:43:31;;;;;;;12.55;7.00;;;20.50;99.90;;;;;;5023368;28;20033;-74
2023/08/23 08:45:57;;;;;;;10.48;5.70;;;20.50;99.90;;;;;;5022531;28;20049;-73
2023/08/23 08:48:23;;;;;;;11.45;6.13;;;20.60;99.90;;;;;;5021437;28;20022;-79
2023/08/23 08:50:49;;;;;;;12.65;6.60;;;20.60;99.90;;;;;;5021137;28;20018;-77
2023/08/23 08:53:17;;;;;;;11.10;6.13;;;20.80;99.90;;;;;;5019695;28;20116;-77
2023/08/23 08:55:44;;;;;;;10.85;5.35;;;20.90;99.90;;;;;;5022564;28;20056;-75
2023/08/23 08:58:15;;;;;;;9.88;5.55;;;21.00;99.90;;;;;;5023310;28;20033;-72
2023/08/23 09:00:42;;;;;;;10.43;5.32;;;21.10;99.90;;;;;;5021132;28;20137;-74
2023/08/23 09:03:09;;;;;;;9.48;5.65;;;21.00;99.90;;;;;;5021554;28;20056;-77
2023/08/23 09:05:35;;;;;;;12.88;6.28;;;21.00;99.90;;;;;;5023690;28;20034;-75
2023/08/23 09:08:01;;;;;;;11.32;5.88;;;20.90;99.90;;;;;;5023186;28;20025;-76
2023/08/23 09:10:27;;;;;;;15.90;7.30;;;20.90;99.90;;;;;;5022037;28;20030;-79
2023/08/23 09:12:52;;;;;;;12.75;6.50;;;21.00;99.90;;;;;;5021519;28;20034;-76
2023/08/23 09:15:19;;;;;;;12.05;6.30;;;21.10;99.90;;;;;;5022824;28;20109;-77
2023/08/23 09:17:45;;;;;;;10.93;6.55;;;21.20;99.90;;;;;;5021915;28;20088;-73
2023/08/23 09:20:11;;;;;;;11.50;6.22;;;21.20;99.90;;;;;;5022034;28;20045;-74
2023/08/23 09:22:37;;;;;;;10.75;5.78;;;21.30;99.90;;;;;;5023406;28;20029;-78
2023/08/23 09:25:03;;;;;;;6.22;4.53;;;21.40;99.90;;;;;;5021152;28;20141;-79
2023/08/23 09:27:29;;;;;;;13.55;5.80;;;21.50;99.90;;;;;;5023182;28;20036;-73
2023/08/23 09:29:59;;;;;;;8.02;4.43;;;21.60;99.90;;;;;;5021237;28;20041;-74
2023/08/23 09:32:27;;;;;;;9.43;3.50;;;21.70;99.90;;;;;;5020481;28;20026;-77
2023/08/23 09:34:53;;;;;;;8.23;3.53;;;21.60;99.90;;;;;;5021034;28;20054;-77
2023/08/23 09:37:19;;;;;;;5.45;3.50;;;21.60;99.90;;;;;;5019506;28;20024;-75
2023/08/23 09:39:45;;;;;;;8.95;4.22;;;21.70;99.90;;;;;;5020810;28;20045;-75
2023/08/23 09:42:14;;;;;;;8.85;4.05;;;21.70;99.90;;;;;;5021815;28;20030;-74
2023/08/23 09:44:43;;;;;;;8.57;5.50;;;21.80;99.90;;;;;;5020493;28;20057;-75
2023/08/23 09:47:14;;;;;;;6.82;4.50;;;21.90;99.90;;;;;;5020332;28;20017;-74
2023/08/23 09:49:43;;;;;;;3.95;3.00;;;22.00;99.90;;;;;;5021103;28;20026;-74
2023/08/23 09:52:13;;;;;;;4.43;3.10;;;22.10;99.90;;;;;;5021450;28;20026;-74
2023/08/23 09:54:48;;;;;;;5.40;2.40;;;22.20;99.90;;;;;;5019619;28;20064;-73
2023/08/23 09:57:17;;;;;;;2.33;1.60;;;22.30;99.90;;;;;;5020445;28;20040;-74
2023/08/23 09:59:44;;;;;;;4.30;1.67;;;22.40;99.90;;;;;;5020952;28;20061;-79
2023/08/23 10:02:12;;;;;;;2.75;1.50;;;22.40;99.90;;;;;;5021325;28;20030;-74
2023/08/23 10:04:42;;;;;;;3.53;1.55;;;22.50;99.90;;;;;;5020092;28;20089;-74
2023/08/23 10:07:08;;;;;;;2.80;1.75;;;22.50;99.90;;;;;;5019599;28;20399;-73
2023/08/23 10:09:35;;;;;;;7.78;2.30;;;22.50;99.90;;;;;;5020631;28;20045;-75
2023/08/23 10:12:04;;;;;;;6.55;1.95;;;22.50;99.90;;;;;;5021603;28;20473;-74
2023/08/23 10:14:31;;;;;;;2.42;1.95;;;22.50;99.90;;;;;;5020043;28;20371;-73
2023/08/23 10:16:59;;;;;;;4.43;1.90;;;22.60;99.90;;;;;;5020404;28;20049;-75
2023/08/23 10:19:25;;;;;;;3.83;2.30;;;22.60;99.90;;;;;;5019973;28;20041;-73
2023/08/23 10:21:50;;;;;;;4.63;2.00;;;22.80;99.90;;;;;;5022181;28;20026;-72
2023/08/23 10:24:16;;;;;;;2.63;1.58;;;22.80;99.90;;;;;;5022200;28;20033;-75
2023/08/23 10:26:55;;;;;;;4.03;1.60;;;22.90;99.90;;;;;;5021847;28;20045;-75
2023/08/23 10:29:27;;;;;;;3.78;1.35;;;23.00;99.90;;;;;;5020967;28;20025;-73
2023/08/23 10:31:54;;;;;;;3.35;1.50;;;23.10;99.90;;;;;;5018598;28;20062;-74
2023/08/23 10:34:27;;;;;;;2.75;1.38;;;23.20;99.90;;;;;;5021416;28;20057;-76
2023/08/23 10:36:53;;;;;;;3.65;1.60;;;23.30;99.90;;;;;;5021667;28;20045;-78
2023/08/23 10:39:27;;;;;;;2.40;1.20;;;23.40;99.90;;;;;;5020592;28;20030;-73
2023/08/23 10:41:56;;;;;;;2.92;1.15;;;23.40;99.90;;;;;;5021195;28;20034;-76
2023/08/23 10:44:22;;;;;;;3.97;1.40;;;23.50;99.90;;;;;;5020234;28;20026;-80
2023/08/23 10:46:51;;;;;;;3.10;1.33;;;23.60;99.90;;;;;;5020718;28;20029;-76
2023/08/23 10:49:20;;;;;;;3.20;1.45;;;23.70;99.90;;;;;;5021533;28;20463;-74
2023/08/23 10:51:46;;;;;;;4.68;1.63;;;23.70;99.90;;;;;;5020214;28;20032;-73
2023/08/23 10:54:13;;;;;;;1.45;1.30;;;23.80;99.90;;;;;;5020479;28;20073;-75
2023/08/23 10:56:39;;;;;;;2.28;1.42;;;23.90;99.90;;;;;;5021873;28;20049;-75
2023/08/23 10:59:08;;;;;;;2.25;1.50;;;24.00;99.90;;;;;;5021873;28;20049;-76
2023/08/23 11:01:37;;;;;;;3.17;1.20;;;24.10;99.90;;;;;;5020499;28;20061;-74
2023/08/23 11:04:03;;;;;;;3.67;1.33;;;24.20;99.90;;;;;;5021305;28;20517;-77
2023/08/23 11:06:29;;;;;;;2.88;1.65;;;24.20;99.90;;;;;;5020678;28;20034;-75
2023/08/23 11:08:56;;;;;;;4.80;1.58;;;24.40;99.90;;;;;;5021199;28;20692;-75
2023/08/23 11:11:22;;;;;;;3.97;1.65;;;24.40;99.90;;;;;;5019372;28;20029;-77
2023/08/23 11:13:47;;;;;;;2.67;1.35;;;24.30;99.90;;;;;;5021620;28;20057;-73
2023/08/23 11:16:13;;;;;;;4.95;1.40;;;24.40;99.90;;;;;;5021531;28;20413;-74
2023/08/23 11:18:39;;;;;;;2.40;1.48;;;24.50;99.90;;;;;;5021741;28;20022;-77
2023/08/23 11:21:05;;;;;;;3.28;1.60;;;24.70;99.90;;;;;;5024046;28;20045;-76
2023/08/23 11:23:31;;;;;;;5.78;1.30;;;24.70;99.90;;;;;;5024987;28;20030;-72
2023/08/23 11:25:57;;;;;;;3.53;1.50;;;24.70;99.90;;;;;;5024708;28;20025;-74
2023/08/23 11:28:22;;;;;;;4.57;1.73;;;24.90;99.90;;;;;;5024755;28;20384;-75
2023/08/23 11:30:48;;;;;;;3.08;1.52;;;25.10;99.90;;;;;;5023164;28;20026;-73
2023/08/23 11:33:14;;;;;;;2.45;1.58;;;25.30;99.90;;;;;;5024907;28;20045;-75
2023/08/23 11:35:40;;;;;;;3.88;1.70;;;25.40;99.90;;;;;;5024114;28;20115;-76
2023/08/23 11:38:05;;;;;;;3.33;1.30;;;25.30;99.90;;;;;;5025122;28;20026;-76
2023/08/23 11:40:34;;;;;;;2.45;1.42;;;25.30;99.90;;;;;;5024981;28;20042;-74
2023/08/23 11:43:04;;;;;;;3.58;1.40;;;25.40;99.90;;;;;;5024664;28;20030;-74
2023/08/23 11:45:36;;;;;;;4.20;1.50;;;25.50;99.90;;;;;;5024683;28;20018;-75
2023/08/23 11:48:01;;;;;;;2.03;1.45;;;25.80;99.90;;;;;;5023628;28;20045;-75
2023/08/23 11:50:28;;;;;;;3.28;1.63;;;25.90;99.90;;;;;;5024709;28;20077;-76
2023/08/23 11:52:54;;;;;;;3.35;1.65;;;26.10;99.90;;;;;;5024709;28;20037;-76
2023/08/23 11:55:23;;;;;;;3.45;1.60;;;26.10;99.90;;;;;;5024815;28;20022;-72
2023/08/23 11:57:55;;;;;;;4.03;1.50;;;25.90;99.90;;;;;;5024375;28;20420;-76
2023/08/23 12:00:22;;;;;;;2.10;1.45;;;25.90;99.90;;;;;;5025184;28;20091;-75
2023/08/23 12:02:47;;;;;;;4.18;1.48;;;25.80;99.90;;;;;;5024857;28;20021;-75
2023/08/23 12:05:14;;;;;;;5.53;1.50;;;25.80;99.90;;;;;;5024021;28;20064;-77
2023/08/23 12:07:40;;;;;;;1.85;1.45;;;25.90;99.90;;;;;;5024562;28;20026;-76
2023/08/23 12:10:11;;;;;;;4.30;1.70;;;26.00;99.90;;;;;;5023468;28;20071;-74
2023/08/23 12:12:37;;;;;;;3.75;1.70;;;26.10;99.90;;;;;;5024323;28;20483;-73
2023/08/23 12:15:04;;;;;;;6.22;1.50;;;26.20;99.90;;;;;;5022841;28;20554;-76
2023/08/23 12:17:30;;;;;;;2.28;1.52;;;26.10;99.90;;;;;;5024058;28;20708;-78
2023/08/23 12:19:55;;;;;;;5.45;1.75;;;25.90;99.90;;;;;;5023232;28;20038;-74
2023/08/23 12:22:21;;;;;;;2.15;1.30;;;25.70;99.90;;;;;;5023011;28;20022;-71
2023/08/23 12:24:46;;;;;;;4.13;1.77;;;25.40;99.90;;;;;;5024458;28;20086;-74
2023/08/23 12:27:12;;;;;;;3.20;1.60;;;25.10;99.90;;;;;;5024233;28;20048;-73
2023/08/23 12:29:38;;;;;;;2.63;1.50;;;25.00;99.90;;;;;;5024349;28;20093;-73
2023/08/23 12:32:07;;;;;;;3.92;1.80;;;25.10;99.90;;;;;;5021106;28;20025;-76
2023/08/23 12:34:36;;;;;;;4.53;1.40;;;25.20;99.90;;;;;;5021759;28;20483;-75